sensor_id;sensor_type;location;lat;lon;timestamp;pressure;altitude;pressure_sealevel;temperature;humidity
57600;BME280;43426;43.594;24.334;2023-04-25T00:01:20;100249.03;;;13.20;100.00
57600;BME280;43426;43.594;24.334;2023-04-25T00:03:47;100238.16;;;13.13;100.00
57600;BME280;43426;43.594;24.334;2023-04-25T00:06:12;100239.84;;;13.14;100.00
57600;BME280;43426;43.594;24.334;2023-04-25T00:08:38;100247.38;;;13.19;100.00
57600;BME280;43426;43.594;24.334;2023-04-25T00:11:04;100241.56;;;12.87;100.00
57600;BME280;43426;43.594;24.334;2023-04-25T00:13:29;100212.38;;;12.54;100.00
57600;BME280;43426;43.594;24.334;2023-04-25T00:15:55;100235.13;;;12.59;100.00
57600;BME280;43426;43.594;24.334;2023-04-25T00:18:21;100215.63;;;12.42;100.00
57600;BME280;43426;43.594;24.334;2023-04-25T00:20:47;100246.66;;;12.68;100.00
57600;BME280;43426;43.594;24.334;2023-04-25T00:23:16;100253.81;;;12.83;100.00
57600;BME280;43426;43.594;24.334;2023-04-25T00:25:47;100239.00;;;12.78;100.00
57600;BME280;43426;43.594;24.334;2023-04-25T00:28:13;100263.84;;;12.89;100.00
57600;BME280;43426;43.594;24.334;2023-04-25T00:30:40;100235.03;;;12.74;100.00
57600;BME280;43426;43.594;24.334;2023-04-25T00:33:06;100246.63;;;12.97;100.00
57600;BME280;43426;43.594;24.334;2023-04-25T00:35:31;100238.25;;;12.91;100.00
57600;BME280;43426;43.594;24.334;2023-04-25T00:37:57;100255.78;;;12.95;100.00
57600;BME280;43426;43.594;24.334;2023-04-25T00:40:22;100238.13;;;12.71;100.00
57600;BME280;43426;43.594;24.334;2023-04-25T00:42:49;100252.94;;;12.75;100.00
57600;BME280;43426;43.594;24.334;2023-04-25T00:45:14;100253.97;;;12.74;100.00
57600;BME280;43426;43.594;24.334;2023-04-25T00:47:41;100232.00;;;12.56;100.00
57600;BME280;43426;43.594;24.334;2023-04-25T00:50:08;100246.41;;;12.63;100.00
57600;BME280;43426;43.594;24.334;2023-04-25T00:52:34;100243.19;;;12.81;100.00
57600;BME280;43426;43.594;24.334;2023-04-25T00:55:00;100228.13;;;12.72;100.00
57600;BME280;43426;43.594;24.334;2023-04-25T00:57:26;100244.66;;;12.84;100.00
57600;BME280;43426;43.594;24.334;2023-04-25T00:59:52;100233.63;;;12.85;100.00
57600;BME280;43426;43.594;24.334;2023-04-25T01:02:18;100244.34;;;13.00;100.00
57600;BME280;43426;43.594;24.334;2023-04-25T01:04:44;100198.84;;;12.89;100.00
57600;BME280;43426;43.594;24.334;2023-04-25T01:07:10;100202.22;;;12.91;100.00
57600;BME280;43426;43.594;24.334;2023-04-25T01:09:38;100196.28;;;12.74;100.00
57600;BME280;43426;43.594;24.334;2023-04-25T01:12:04;100191.91;;;12.73;100.00
57600;BME280;43426;43.594;24.334;2023-04-25T01:14:29;100212.97;;;12.77;100.00
57600;BME280;43426;43.594;24.334;2023-04-25T01:16:55;100201.09;;;12.78;100.00
57600;BME280;43426;43.594;24.334;2023-04-25T01:19:20;100204.63;;;12.72;100.00
57600;BME280;43426;43.594;24.334;2023-04-25T01:21:46;100203.56;;;12.73;100.00
57600;BME280;43426;43.594;24.334;2023-04-25T01:24:12;100197.78;;;12.83;100.00
57600;BME280;43426;43.594;24.334;2023-04-25T01:26:40;100174.78;;;12.66;100.00
57600;BME280;43426;43.594;24.334;2023-04-25T01:29:10;100195.78;;;12.92;100.00
57600;BME280;43426;43.594;24.334;2023-04-25T01:31:35;100198.06;;;12.95;100.00
57600;BME280;43426;43.594;24.334;2023-04-25T01:34:01;100170.50;;;12.85;100.00
57600;BME280;43426;43.594;24.334;2023-04-25T01:36:26;100177.16;;;12.75;100.00
57600;BME280;43426;43.594;24.334;2023-04-25T01:38:52;100185.41;;;13.02;98.72
57600;BME280;43426;43.594;24.334;2023-04-25T01:41:18;100182.91;;;13.01;97.98
57600;BME280;43426;43.594;24.334;2023-04-25T01:43:44;100178.47;;;12.93;99.52
57600;BME280;43426;43.594;24.334;2023-04-25T01:46:11;100177.59;;;12.86;100.00
57600;BME280;43426;43.594;24.334;2023-04-25T01:48:37;100156.91;;;12.71;100.00
57600;BME280;43426;43.594;24.334;2023-04-25T01:51:04;100144.38;;;12.64;100.00
57600;BME280;43426;43.594;24.334;2023-04-25T01:53:30;100169.22;;;12.81;100.00
57600;BME280;43426;43.594;24.334;2023-04-25T01:55:55;100160.53;;;12.85;100.00
57600;BME280;43426;43.594;24.334;2023-04-25T01:58:21;100119.34;;;12.55;100.00
57600;BME280;43426;43.594;24.334;2023-04-25T02:00:46;100146.25;;;12.63;100.00
57600;BME280;43426;43.594;24.334;2023-04-25T02:03:12;100130.78;;;12.57;100.00
57600;BME280;43426;43.594;24.334;2023-04-25T02:05:38;100136.28;;;12.70;100.00
57600;BME280;43426;43.594;24.334;2023-04-25T02:08:05;100141.47;;;12.65;100.00
57600;BME280;43426;43.594;24.334;2023-04-25T02:10:31;100140.84;;;12.63;99.89
57600;BME280;43426;43.594;24.334;2023-04-25T02:12:57;100085.09;;;12.34;98.84
57600;BME280;43426;43.594;24.334;2023-04-25T02:15:23;100136.03;;;12.65;99.15
57600;BME280;43426;43.594;24.334;2023-04-25T02:17:48;100151.19;;;12.88;97.95
57600;BME280;43426;43.594;24.334;2023-04-25T02:20:16;100140.50;;;12.80;97.01
57600;BME280;43426;43.594;24.334;2023-04-25T02:22:42;100134.84;;;12.74;97.51
57600;BME280;43426;43.594;24.334;2023-04-25T02:25:08;100134.00;;;12.67;97.77
57600;BME280;43426;43.594;24.334;2023-04-25T02:27:34;100133.69;;;12.97;95.34
57600;BME280;43426;43.594;24.334;2023-04-25T02:30:00;100160.81;;;13.04;95.51
57600;BME280;43426;43.594;24.334;2023-04-25T02:32:25;100150.66;;;13.19;93.73
57600;BME280;43426;43.594;24.334;2023-04-25T02:34:52;100135.25;;;13.13;95.31
57600;BME280;43426;43.594;24.334;2023-04-25T02:37:17;100152.28;;;13.07;95.42
57600;BME280;43426;43.594;24.334;2023-04-25T02:39:42;100143.75;;;13.03;94.77
57600;BME280;43426;43.594;24.334;2023-04-25T02:42:08;100144.41;;;13.19;93.92
57600;BME280;43426;43.594;24.334;2023-04-25T02:44:33;100150.66;;;13.19;94.90
57600;BME280;43426;43.594;24.334;2023-04-25T02:46:58;100148.53;;;13.08;95.62
57600;BME280;43426;43.594;24.334;2023-04-25T02:49:24;100134.41;;;13.13;94.93
57600;BME280;43426;43.594;24.334;2023-04-25T02:51:50;100123.56;;;13.06;94.90
57600;BME280;43426;43.594;24.334;2023-04-25T02:54:15;100132.22;;;12.88;96.84
57600;BME280;43426;43.594;24.334;2023-04-25T02:56:41;100113.00;;;12.76;97.09
57600;BME280;43426;43.594;24.334;2023-04-25T02:59:06;100119.22;;;12.76;97.22
57600;BME280;43426;43.594;24.334;2023-04-25T03:01:31;100133.25;;;12.87;96.56
57600;BME280;43426;43.594;24.334;2023-04-25T03:03:57;100095.09;;;12.82;95.78
57600;BME280;43426;43.594;24.334;2023-04-25T03:06:22;100109.72;;;12.87;96.84
57600;BME280;43426;43.594;24.334;2023-04-25T03:08:47;100129.34;;;13.03;95.56
57600;BME280;43426;43.594;24.334;2023-04-25T03:11:13;100098.34;;;12.64;96.71
57600;BME280;43426;43.594;24.334;2023-04-25T03:13:38;100120.06;;;12.70;97.13
57600;BME280;43426;43.594;24.334;2023-04-25T03:16:04;100141.81;;;12.97;96.96
57600;BME280;43426;43.594;24.334;2023-04-25T03:18:30;100141.03;;;13.03;96.82
57600;BME280;43426;43.594;24.334;2023-04-25T03:20:55;100144.59;;;13.10;95.47
57600;BME280;43426;43.594;24.334;2023-04-25T03:23:20;100116.94;;;12.73;97.11
57600;BME280;43426;43.594;24.334;2023-04-25T03:25:46;100134.13;;;12.94;96.65
57600;BME280;43426;43.594;24.334;2023-04-25T03:28:11;100132.59;;;12.85;98.21
57600;BME280;43426;43.594;24.334;2023-04-25T03:30:37;100120.63;;;12.59;98.77
57600;BME280;43426;43.594;24.334;2023-04-25T03:33:02;100118.13;;;12.57;98.94
57600;BME280;43426;43.594;24.334;2023-04-25T03:35:28;100140.84;;;12.63;99.43
57600;BME280;43426;43.594;24.334;2023-04-25T03:37:53;100142.91;;;12.61;99.74
57600;BME280;43426;43.594;24.334;2023-04-25T03:40:18;100116.75;;;12.40;100.00
57600;BME280;43426;43.594;24.334;2023-04-25T03:42:44;100150.56;;;12.51;100.00
57600;BME280;43426;43.594;24.334;2023-04-25T03:45:10;100151.78;;;12.48;100.00
57600;BME280;43426;43.594;24.334;2023-04-25T03:47:36;100160.09;;;12.47;100.00
57600;BME280;43426;43.594;24.334;2023-04-25T03:50:01;100155.72;;;12.46;100.00
57600;BME280;43426;43.594;24.334;2023-04-25T03:52:28;100156.13;;;12.42;100.00
57600;BME280;43426;43.594;24.334;2023-04-25T03:54:53;100124.97;;;12.25;100.00
57600;BME280;43426;43.594;24.334;2023-04-25T03:57:18;100156.13;;;12.42;100.00
57600;BME280;43426;43.594;24.334;2023-04-25T03:59:44;100147.13;;;12.35;100.00
57600;BME280;43426;43.594;24.334;2023-04-25T04:02:10;100151.47;;;12.36;100.00
57600;BME280;43426;43.594;24.334;2023-04-25T04:04:35;100154.63;;;12.40;100.00
57600;BME280;43426;43.594;24.334;2023-04-25T04:07:01;100157.13;;;12.41;100.00
57600;BME280;43426;43.594;24.334;2023-04-25T04:09:26;100150.25;;;12.39;100.00
57600;BME280;43426;43.594;24.334;2023-04-25T04:11:52;100150.84;;;12.34;100.00
57600;BME280;43426;43.594;24.334;2023-04-25T04:14:18;100158.00;;;12.42;100.00
57600;BME280;43426;43.594;24.334;2023-04-25T04:16:43;100160.38;;;12.58;100.00
57600;BME280;43426;43.594;24.334;2023-04-25T04:19:09;100165.19;;;12.63;100.00
57600;BME280;43426;43.594;24.334;2023-04-25T04:21:34;100162.69;;;12.62;100.00
57600;BME280;43426;43.594;24.334;2023-04-25T04:24:02;100138.72;;;12.58;100.00
57600;BME280;43426;43.594;24.334;2023-04-25T04:26:28;100140.31;;;12.81;100.00
57600;BME280;43426;43.594;24.334;2023-04-25T04:28:54;100169.06;;;12.89;100.00
57600;BME280;43426;43.594;24.334;2023-04-25T04:31:20;100173.09;;;13.00;100.00
57600;BME280;43426;43.594;24.334;2023-04-25T04:33:46;100171.06;;;13.15;100.00
57600;BME280;43426;43.594;24.334;2023-04-25T04:36:12;100146.91;;;13.14;100.00
57600;BME280;43426;43.594;24.334;2023-04-25T04:38:38;100179.44;;;13.20;100.00
57600;BME280;43426;43.594;24.334;2023-04-25T04:41:03;100173.13;;;13.06;100.00
57600;BME280;43426;43.594;24.334;2023-04-25T04:43:29;100175.66;;;13.15;100.00
57600;BME280;43426;43.594;24.334;2023-04-25T04:45:57;100153.94;;;12.94;100.00
57600;BME280;43426;43.594;24.334;2023-04-25T04:48:22;100176.47;;;13.08;100.00
57600;BME280;43426;43.594;24.334;2023-04-25T04:50:48;100176.94;;;13.19;100.00
57600;BME280;43426;43.594;24.334;2023-04-25T04:53:13;100178.63;;;13.26;100.00
57600;BME280;43426;43.594;24.334;2023-04-25T04:55:39;100159.06;;;13.31;100.00
57600;BME280;43426;43.594;24.334;2023-04-25T04:58:06;100174.97;;;13.48;100.00
57600;BME280;43426;43.594;24.334;2023-04-25T05:00:32;100162.03;;;13.50;100.00
57600;BME280;43426;43.594;24.334;2023-04-25T05:02:58;100183.81;;;13.76;100.00
57600;BME280;43426;43.594;24.334;2023-04-25T05:05:23;100176.09;;;13.93;99.67
57600;BME280;43426;43.594;24.334;2023-04-25T05:07:49;100180.50;;;14.41;97.84
57600;BME280;43426;43.594;24.334;2023-04-25T05:10:14;100179.44;;;14.69;95.47
57600;BME280;43426;43.594;24.334;2023-04-25T05:12:40;100183.31;;;15.00;93.33
57600;BME280;43426;43.594;24.334;2023-04-25T05:15:06;100180.25;;;15.35;91.13
57600;BME280;43426;43.594;24.334;2023-04-25T05:17:31;100181.75;;;16.02;88.10
57600;BME280;43426;43.594;24.334;2023-04-25T05:19:57;100181.75;;;16.52;83.50
57600;BME280;43426;43.594;24.334;2023-04-25T05:22:23;100194.38;;;16.90;81.64
57600;BME280;43426;43.594;24.334;2023-04-25T05:24:48;100178.16;;;17.14;76.99
57600;BME280;43426;43.594;24.334;2023-04-25T05:27:16;100197.28;;;16.95;78.49
57600;BME280;43426;43.594;24.334;2023-04-25T05:29:41;100197.50;;;16.94;79.31
57600;BME280;43426;43.594;24.334;2023-04-25T05:32:06;100194.09;;;16.98;80.45
57600;BME280;43426;43.594;24.334;2023-04-25T05:34:32;100176.44;;;17.01;80.46
57600;BME280;43426;43.594;24.334;2023-04-25T05:36:58;100193.09;;;16.93;80.38
57600;BME280;43426;43.594;24.334;2023-04-25T05:39:23;100167.50;;;17.12;79.94
57600;BME280;43426;43.594;24.334;2023-04-25T05:41:48;100189.72;;;17.46;78.25
57600;BME280;43426;43.594;24.334;2023-04-25T05:44:14;100173.53;;;17.63;77.62
57600;BME280;43426;43.594;24.334;2023-04-25T05:46:41;100165.03;;;18.02;74.20
57600;BME280;43426;43.594;24.334;2023-04-25T05:49:06;100186.56;;;18.58;73.46
57600;BME280;43426;43.594;24.334;2023-04-25T05:51:32;100180.97;;;19.00;70.01
57600;BME280;43426;43.594;24.334;2023-04-25T05:53:57;100171.28;;;19.09;70.95
57600;BME280;43426;43.594;24.334;2023-04-25T05:56:23;100183.34;;;19.37;71.73
57600;BME280;43426;43.594;24.334;2023-04-25T05:58:48;100173.09;;;19.44;69.39
57600;BME280;43426;43.594;24.334;2023-04-25T06:01:13;100188.00;;;19.65;70.45
57600;BME280;43426;43.594;24.334;2023-04-25T06:03:39;100197.81;;;19.78;70.66
57600;BME280;43426;43.594;24.334;2023-04-25T06:06:08;100186.72;;;19.56;70.59
57600;BME280;43426;43.594;24.334;2023-04-25T06:08:33;100187.00;;;19.02;71.38
57600;BME280;43426;43.594;24.334;2023-04-25T06:10:59;100170.28;;;18.63;75.31
57600;BME280;43426;43.594;24.334;2023-04-25T06:13:24;100177.63;;;18.27;76.46
57600;BME280;43426;43.594;24.334;2023-04-25T06:15:49;100151.13;;;18.03;77.96
57600;BME280;43426;43.594;24.334;2023-04-25T06:18:15;100170.00;;;18.05;78.01
57600;BME280;43426;43.594;24.334;2023-04-25T06:20:40;100177.72;;;17.66;77.86
57600;BME280;43426;43.594;24.334;2023-04-25T06:23:06;100183.47;;;17.27;79.80
57600;BME280;43426;43.594;24.334;2023-04-25T06:25:31;100195.19;;;17.46;82.37
57600;BME280;43426;43.594;24.334;2023-04-25T06:27:56;100198.16;;;18.06;79.29
57600;BME280;43426;43.594;24.334;2023-04-25T06:30:22;100196.41;;;18.59;77.84
57600;BME280;43426;43.594;24.334;2023-04-25T06:32:51;100202.72;;;19.07;75.59
57600;BME280;43426;43.594;24.334;2023-04-25T06:35:16;100170.28;;;19.27;75.18
57600;BME280;43426;43.594;24.334;2023-04-25T06:37:42;100189.19;;;19.98;73.63
57600;BME280;43426;43.594;24.334;2023-04-25T06:40:08;100174.16;;;20.01;72.95
57600;BME280;43426;43.594;24.334;2023-04-25T06:42:33;100179.78;;;19.65;69.41
57600;BME280;43426;43.594;24.334;2023-04-25T06:44:59;100199.69;;;19.61;69.03
57600;BME280;43426;43.594;24.334;2023-04-25T06:47:24;100186.25;;;19.18;68.95
57600;BME280;43426;43.594;24.334;2023-04-25T06:49:50;100198.06;;;18.83;72.04
57600;BME280;43426;43.594;24.334;2023-04-25T06:52:15;100198.25;;;19.17;70.34
57600;BME280;43426;43.594;24.334;2023-04-25T06:54:43;100157.84;;;19.19;70.72
57600;BME280;43426;43.594;24.334;2023-04-25T06:57:08;100198.81;;;20.01;69.75
57600;BME280;43426;43.594;24.334;2023-04-25T06:59:34;100186.78;;;20.36;65.56
57600;BME280;43426;43.594;24.334;2023-04-25T07:01:59;100183.69;;;20.32;67.17
57600;BME280;43426;43.594;24.334;2023-04-25T07:04:24;100164.84;;;20.02;63.56
57600;BME280;43426;43.594;24.334;2023-04-25T07:06:50;100173.97;;;19.62;64.85
57600;BME280;43426;43.594;24.334;2023-04-25T07:09:15;100201.41;;;19.38;63.44
57600;BME280;43426;43.594;24.334;2023-04-25T07:11:41;100198.97;;;19.25;66.22
57600;BME280;43426;43.594;24.334;2023-04-25T07:14:07;100192.72;;;19.00;67.25
57600;BME280;43426;43.594;24.334;2023-04-25T07:16:32;100191.19;;;18.93;69.38
57600;BME280;43426;43.594;24.334;2023-04-25T07:18:58;100181.66;;;18.83;70.36
57600;BME280;43426;43.594;24.334;2023-04-25T07:21:24;100207.31;;;19.18;69.00
57600;BME280;43426;43.594;24.334;2023-04-25T07:23:50;100205.75;;;19.63;68.37
57600;BME280;43426;43.594;24.334;2023-04-25T07:26:16;100180.88;;;20.10;63.31
57600;BME280;43426;43.594;24.334;2023-04-25T07:28:42;100182.88;;;20.32;62.73
57600;BME280;43426;43.594;24.334;2023-04-25T07:31:08;100173.28;;;20.68;59.09
57600;BME280;43426;43.594;24.334;2023-04-25T07:33:36;100184.81;;;20.87;59.25
57600;BME280;43426;43.594;24.334;2023-04-25T07:36:02;100181.88;;;20.94;59.69
57600;BME280;43426;43.594;24.334;2023-04-25T07:38:27;100187.59;;;20.70;60.50
57600;BME280;43426;43.594;24.334;2023-04-25T07:40:53;100182.13;;;20.53;57.26
57600;BME280;43426;43.594;24.334;2023-04-25T07:43:18;100174.31;;;20.28;57.44
57600;BME280;43426;43.594;24.334;2023-04-25T07:45:44;100211.03;;;20.27;58.42
57600;BME280;43426;43.594;24.334;2023-04-25T07:48:09;100188.59;;;20.30;59.42
57600;BME280;43426;43.594;24.334;2023-04-25T07:50:35;100187.13;;;20.39;56.75
57600;BME280;43426;43.594;24.334;2023-04-25T07:53:01;100188.25;;;20.61;54.98
57600;BME280;43426;43.594;24.334;2023-04-25T07:55:26;100189.19;;;20.49;58.20
57600;BME280;43426;43.594;24.334;2023-04-25T07:57:52;100176.63;;;20.53;58.63
57600;BME280;43426;43.594;24.334;2023-04-25T08:00:17;100173.75;;;20.82;60.06
57600;BME280;43426;43.594;24.334;2023-04-25T08:02:43;100149.16;;;20.87;59.74
57600;BME280;43426;43.594;24.334;2023-04-25T08:05:09;100186.28;;;20.95;57.45
57600;BME280;43426;43.594;24.334;2023-04-25T08:07:37;100155.28;;;20.95;57.61
57600;BME280;43426;43.594;24.334;2023-04-25T08:10:07;100187.69;;;21.42;53.90
57600;BME280;43426;43.594;24.334;2023-04-25T08:12:33;100198.91;;;21.63;49.98
57600;BME280;43426;43.594;24.334;2023-04-25T08:14:58;100187.44;;;21.21;52.54
57600;BME280;43426;43.594;24.334;2023-04-25T08:17:23;100201.88;;;21.34;51.35
57600;BME280;43426;43.594;24.334;2023-04-25T08:19:49;100168.69;;;21.13;52.86
57600;BME280;43426;43.594;24.334;2023-04-25T08:22:15;100182.97;;;20.93;52.89
57600;BME280;43426;43.594;24.334;2023-04-25T08:24:41;100197.81;;;20.97;54.43
57600;BME280;43426;43.594;24.334;2023-04-25T08:27:07;100206.06;;;21.19;54.21
57600;BME280;43426;43.594;24.334;2023-04-25T08:29:33;100211.44;;;21.09;55.50
57600;BME280;43426;43.594;24.334;2023-04-25T08:32:00;100184.13;;;20.97;58.45
57600;BME280;43426;43.594;24.334;2023-04-25T08:34:25;100193.75;;;21.22;53.74
57600;BME280;43426;43.594;24.334;2023-04-25T08:36:51;100193.56;;;20.84;56.02
57600;BME280;43426;43.594;24.334;2023-04-25T08:39:17;100214.06;;;20.82;52.67
57600;BME280;43426;43.594;24.334;2023-04-25T08:41:43;100195.78;;;20.87;55.58
57600;BME280;43426;43.594;24.334;2023-04-25T08:44:10;100213.72;;;20.78;51.60
57600;BME280;43426;43.594;24.334;2023-04-25T08:46:38;100224.53;;;20.34;53.67
57600;BME280;43426;43.594;24.334;2023-04-25T08:49:05;100226.75;;;19.86;58.78
57600;BME280;43426;43.594;24.334;2023-04-25T08:51:32;100214.19;;;19.61;59.26
57600;BME280;43426;43.594;24.334;2023-04-25T08:54:09;100221.66;;;19.66;60.00
57600;BME280;43426;43.594;24.334;2023-04-25T08:56:36;100194.63;;;19.40;61.29
57600;BME280;43426;43.594;24.334;2023-04-25T08:59:02;100189.00;;;19.18;62.44
57600;BME280;43426;43.594;24.334;2023-04-25T09:01:28;100209.25;;;19.46;63.10
57600;BME280;43426;43.594;24.334;2023-04-25T09:03:53;100208.97;;;19.60;60.54
57600;BME280;43426;43.594;24.334;2023-04-25T09:06:19;100188.09;;;19.42;61.43
57600;BME280;43426;43.594;24.334;2023-04-25T09:08:44;100205.34;;;20.00;60.58
57600;BME280;43426;43.594;24.334;2023-04-25T09:11:10;100181.91;;;20.60;58.21
57600;BME280;43426;43.594;24.334;2023-04-25T09:13:35;100200.19;;;20.88;56.50
57600;BME280;43426;43.594;24.334;2023-04-25T09:16:01;100185.50;;;20.61;56.81
57600;BME280;43426;43.594;24.334;2023-04-25T09:18:33;100210.69;;;20.57;55.00
57600;BME280;43426;43.594;24.334;2023-04-25T09:21:24;100204.19;;;20.64;53.23
57600;BME280;43426;43.594;24.334;2023-04-25T09:23:50;100202.06;;;21.05;54.94
57600;BME280;43426;43.594;24.334;2023-04-25T09:26:18;100179.78;;;21.23;51.01
57600;BME280;43426;43.594;24.334;2023-04-25T09:28:44;100185.91;;;21.08;51.16
57600;BME280;43426;43.594;24.334;2023-04-25T09:31:11;100195.25;;;21.30;52.98
57600;BME280;43426;43.594;24.334;2023-04-25T09:33:37;100204.34;;;21.35;49.78
57600;BME280;43426;43.594;24.334;2023-04-25T09:36:08;100187.75;;;21.03;51.79
57600;BME280;43426;43.594;24.334;2023-04-25T09:38:41;100200.13;;;20.66;51.21
57600;BME280;43426;43.594;24.334;2023-04-25T09:41:08;100215.00;;;20.36;52.20
57600;BME280;43426;43.594;24.334;2023-04-25T09:43:35;100168.41;;;19.85;53.31
57600;BME280;43426;43.594;24.334;2023-04-25T09:46:00;100198.94;;;19.65;55.35
57600;BME280;43426;43.594;24.334;2023-04-25T09:48:27;100201.75;;;19.82;52.28
57600;BME280;43426;43.594;24.334;2023-04-25T09:51:10;100207.19;;;20.28;52.74
57600;BME280;43426;43.594;24.334;2023-04-25T09:53:41;100199.63;;;20.69;52.56
57600;BME280;43426;43.594;24.334;2023-04-25T09:56:08;100173.72;;;21.43;54.33
57600;BME280;43426;43.594;24.334;2023-04-25T09:58:35;100194.41;;;21.79;49.79
57600;BME280;43426;43.594;24.334;2023-04-25T10:01:03;100188.59;;;21.25;49.51
57600;BME280;43426;43.594;24.334;2023-04-25T10:03:31;100180.97;;;20.49;51.12
57600;BME280;43426;43.594;24.334;2023-04-25T10:06:02;100175.06;;;20.06;52.05
57600;BME280;43426;43.594;24.334;2023-04-25T10:08:37;100187.34;;;20.04;54.59
57600;BME280;43426;43.594;24.334;2023-04-25T10:11:05;100163.53;;;20.21;53.93
57600;BME280;43426;43.594;24.334;2023-04-25T10:13:31;100182.13;;;20.36;53.38
57600;BME280;43426;43.594;24.334;2023-04-25T10:16:02;100165.66;;;19.85;54.11
57600;BME280;43426;43.594;24.334;2023-04-25T10:18:29;100155.16;;;19.65;53.65
57600;BME280;43426;43.594;24.334;2023-04-25T10:20:56;100168.03;;;19.65;57.20
57600;BME280;43426;43.594;24.334;2023-04-25T10:23:22;100146.84;;;19.60;57.12
57600;BME280;43426;43.594;24.334;2023-04-25T10:25:50;100152.25;;;19.55;56.10
57600;BME280;43426;43.594;24.334;2023-04-25T10:28:16;100148.94;;;19.41;56.08
57600;BME280;43426;43.594;24.334;2023-04-25T10:31:02;100169.78;;;19.42;55.28
57600;BME280;43426;43.594;24.334;2023-04-25T10:33:36;100128.16;;;19.11;55.10
57600;BME280;43426;43.594;24.334;2023-04-25T10:36:13;100130.19;;;19.04;54.87
57600;BME280;43426;43.594;24.334;2023-04-25T10:38:39;100155.56;;;19.74;54.71
57600;BME280;43426;43.594;24.334;2023-04-25T10:41:06;100145.59;;;20.31;53.37
57600;BME280;43426;43.594;24.334;2023-04-25T10:43:43;100132.44;;;20.50;51.77
57600;BME280;43426;43.594;24.334;2023-04-25T10:48:55;100144.13;;;20.23;52.22
57600;BME280;43426;43.594;24.334;2023-04-25T10:51:23;100110.97;;;20.64;54.64
57600;BME280;43426;43.594;24.334;2023-04-25T10:56:21;100121.75;;;21.59;50.90
57600;BME280;43426;43.594;24.334;2023-04-25T10:58:47;100097.38;;;21.68;51.60
57600;BME280;43426;43.594;24.334;2023-04-25T11:01:20;100123.41;;;21.60;50.40
57600;BME280;43426;43.594;24.334;2023-04-25T11:03:46;100131.88;;;21.58;51.13
57600;BME280;43426;43.594;24.334;2023-04-25T11:08:54;100126.19;;;21.38;49.76
57600;BME280;43426;43.594;24.334;2023-04-25T11:11:20;100118.44;;;21.89;50.25
57600;BME280;43426;43.594;24.334;2023-04-25T11:13:49;100123.53;;;22.45;46.59
57600;BME280;43426;43.594;24.334;2023-04-25T11:16:16;100118.50;;;22.75;47.70
57600;BME280;43426;43.594;24.334;2023-04-25T11:18:42;100121.72;;;23.20;49.40
57600;BME280;43426;43.594;24.334;2023-04-25T11:21:08;100122.69;;;22.93;47.56
57600;BME280;43426;43.594;24.334;2023-04-25T11:23:33;100120.81;;;23.09;50.85
57600;BME280;43426;43.594;24.334;2023-04-25T11:25:59;100127.53;;;23.44;47.47
57600;BME280;43426;43.594;24.334;2023-04-25T11:28:26;100138.13;;;24.04;46.23
57600;BME280;43426;43.594;24.334;2023-04-25T11:30:52;100126.53;;;24.02;45.63
57600;BME280;43426;43.594;24.334;2023-04-25T11:33:18;100127.31;;;23.61;44.29
57600;BME280;43426;43.594;24.334;2023-04-25T11:35:47;100122.69;;;24.03;49.34
57600;BME280;43426;43.594;24.334;2023-04-25T11:38:13;100102.53;;;24.23;43.18
57600;BME280;43426;43.594;24.334;2023-04-25T11:40:38;100113.00;;;24.16;43.84
57600;BME280;43426;43.594;24.334;2023-04-25T11:43:04;100117.97;;;24.24;46.50
57600;BME280;43426;43.594;24.334;2023-04-25T11:45:30;100109.41;;;24.36;44.94
57600;BME280;43426;43.594;24.334;2023-04-25T11:47:56;100113.00;;;24.21;42.98
57600;BME280;43426;43.594;24.334;2023-04-25T11:50:21;100092.34;;;23.97;45.70
57600;BME280;43426;43.594;24.334;2023-04-25T11:52:47;100106.66;;;23.79;43.89
57600;BME280;43426;43.594;24.334;2023-04-25T11:55:18;100101.06;;;23.17;43.83
57600;BME280;43426;43.594;24.334;2023-04-25T11:57:45;100089.59;;;22.72;45.55
57600;BME280;43426;43.594;24.334;2023-04-25T12:00:14;100078.38;;;21.93;46.70
57600;BME280;43426;43.594;24.334;2023-04-25T12:02:51;100088.81;;;21.09;50.72
57600;BME280;43426;43.594;24.334;2023-04-25T12:05:17;100138.97;;;20.10;50.07
57600;BME280;43426;43.594;24.334;2023-04-25T12:07:42;100121.00;;;18.34;53.27
57600;BME280;43426;43.594;24.334;2023-04-25T12:10:10;100139.25;;;17.56;58.32
57600;BME280;43426;43.594;24.334;2023-04-25T12:12:36;100135.34;;;17.02;62.75
57600;BME280;43426;43.594;24.334;2023-04-25T12:15:08;100117.13;;;15.97;66.98
57600;BME280;43426;43.594;24.334;2023-04-25T12:17:35;100124.91;;;15.23;73.29
57600;BME280;43426;43.594;24.334;2023-04-25T12:20:05;100160.84;;;14.53;81.32
57600;BME280;43426;43.594;24.334;2023-04-25T12:22:30;100153.16;;;14.16;85.12
57600;BME280;43426;43.594;24.334;2023-04-25T12:24:56;100145.03;;;13.96;87.90
57600;BME280;43426;43.594;24.334;2023-04-25T12:27:25;100121.63;;;13.61;89.68
57600;BME280;43426;43.594;24.334;2023-04-25T12:29:53;100139.97;;;13.66;92.55
57600;BME280;43426;43.594;24.334;2023-04-25T12:32:19;100128.72;;;13.56;93.98
57600;BME280;43426;43.594;24.334;2023-04-25T12:34:45;100120.34;;;13.44;93.43
57600;BME280;43426;43.594;24.334;2023-04-25T12:37:10;100113.50;;;13.61;92.60
57600;BME280;43426;43.594;24.334;2023-04-25T12:39:36;100133.31;;;14.02;94.31
57600;BME280;43426;43.594;24.334;2023-04-25T12:42:01;100099.13;;;13.94;96.83